EZY28XC EGKK-LEST
Flight info
| Callsign | EZY28XC |
|---|---|
| Flight time | N/A |
| Altitude | 35000 |
| Route | IMVUR N63 SAM N19 ADKIK DCT JOZMA DCT GAPLI/M078F350 DCT LASNO T9 BEGAS/N0447F350 DCT DEMOS DCT OLBOD DCT BEXAL DCT SAMAR |
| Aircraft | A320/M-SDE3FGHIRWY/LB1 |
Departure
| Time | N/A |
|---|---|
| Airport | London Gatwick Airport (EGKK) |
Arrival
| Time | 2026-04-26 10:06 |
|---|---|
| Airport | Santiago-Rosalía de Castro Airport (LEST) |
| Time | Latitude | Longitude | Altitude | Speed | Heading |
|---|---|---|---|---|---|
| 2026-04-26 09:54 | 43.01480 | -8.73504 | 8277 ft | 277 kts | 159° |
| 2026-04-26 09:54 | 42.99697 | -8.72537 | 7667 ft | 275 kts | 159° |
| 2026-04-26 09:55 | 42.97927 | -8.71579 | 7070 ft | 272 kts | 159° |
| 2026-04-26 09:55 | 42.96166 | -8.70630 | 6439 ft | 271 kts | 159° |
| 2026-04-26 09:55 | 42.94433 | -8.69698 | 5851 ft | 268 kts | 159° |
| 2026-04-26 09:55 | 42.92701 | -8.68769 | 5228 ft | 266 kts | 159° |
| 2026-04-26 09:56 | 42.90989 | -8.67854 | 4619 ft | 263 kts | 159° |
| 2026-04-26 09:56 | 42.89294 | -8.66945 | 4122 ft | 259 kts | 159° |
| 2026-04-26 09:56 | 42.87606 | -8.66033 | 3995 ft | 262 kts | 159° |
| 2026-04-26 09:56 | 42.85906 | -8.65106 | 3998 ft | 263 kts | 159° |
| 2026-04-26 09:57 | 42.84226 | -8.64191 | 3997 ft | 264 kts | 159° |
| 2026-04-26 09:57 | 42.82522 | -8.63262 | 3996 ft | 262 kts | 159° |
| 2026-04-26 09:57 | 42.80823 | -8.62333 | 3997 ft | 263 kts | 159° |
| 2026-04-26 09:57 | 42.79123 | -8.61406 | 3997 ft | 262 kts | 159° |
| 2026-04-26 09:58 | 42.77444 | -8.60491 | 3994 ft | 262 kts | 158° |
| 2026-04-26 09:58 | 42.75946 | -8.59089 | 3995 ft | 264 kts | 131° |
| 2026-04-26 09:58 | 42.75116 | -8.56866 | 3992 ft | 267 kts | 102° |
| 2026-04-26 09:58 | 42.74996 | -8.54333 | 3992 ft | 269 kts | 90° |
| 2026-04-26 09:59 | 42.75038 | -8.51813 | 3990 ft | 269 kts | 90° |
| 2026-04-26 09:59 | 42.75102 | -8.49256 | 3990 ft | 270 kts | 89° |
| 2026-04-26 09:59 | 42.75171 | -8.46722 | 3981 ft | 270 kts | 89° |
| 2026-04-26 09:59 | 42.75240 | -8.44170 | 3665 ft | 267 kts | 89° |
| 2026-04-26 10:00 | 42.75305 | -8.41640 | 3248 ft | 266 kts | 89° |
| 2026-04-26 10:00 | 42.75415 | -8.39185 | 3000 ft | 253 kts | 80° |
| 2026-04-26 10:00 | 42.76143 | -8.37171 | 2981 ft | 231 kts | 43° |
| 2026-04-26 10:00 | 42.77513 | -8.36312 | 2999 ft | 205 kts | 359° |
| 2026-04-26 10:01 | 42.78709 | -8.36911 | 2986 ft | 178 kts | 313° |
| 2026-04-26 10:01 | 42.79535 | -8.38114 | 2985 ft | 168 kts | 314° |
| 2026-04-26 10:01 | 42.80321 | -8.39266 | 2967 ft | 163 kts | 300° |
| 2026-04-26 10:01 | 42.80555 | -8.40688 | 2945 ft | 157 kts | 253° |
| 2026-04-26 10:02 | 42.80001 | -8.41904 | 2926 ft | 152 kts | 213° |
| 2026-04-26 10:02 | 42.79010 | -8.42202 | 2934 ft | 153 kts | 166° |
| 2026-04-26 10:02 | 42.78164 | -8.41360 | 2922 ft | 157 kts | 118° |
| 2026-04-26 10:02 | 42.78032 | -8.39879 | 2919 ft | 162 kts | 75° |
| 2026-04-26 10:03 | 42.78642 | -8.38626 | 2925 ft | 165 kts | 33° |
| 2026-04-26 10:03 | 42.79727 | -8.38216 | 2916 ft | 165 kts | 351° |
| 2026-04-26 10:03 | 42.80839 | -8.38571 | 2769 ft | 160 kts | 344° |
| 2026-04-26 10:03 | 42.81902 | -8.38926 | 2571 ft | 157 kts | 345° |
| 2026-04-26 10:04 | 42.82966 | -8.39281 | 2365 ft | 156 kts | 345° |
| 2026-04-26 10:04 | 42.84016 | -8.39632 | 2154 ft | 154 kts | 345° |
| 2026-04-26 10:04 | 42.85036 | -8.39974 | 1956 ft | 151 kts | 346° |
| 2026-04-26 10:04 | 42.86057 | -8.40315 | 1752 ft | 150 kts | 346° |
| 2026-04-26 10:05 | 42.87064 | -8.40653 | 1559 ft | 148 kts | 346° |
| 2026-04-26 10:05 | 42.88049 | -8.40985 | 1359 ft | 146 kts | 346° |
| 2026-04-26 10:05 | 42.89027 | -8.41313 | 1219 ft | 136 kts | 346° |
| 2026-04-26 10:05 | 42.89749 | -8.41555 | 1207 ft | 81 kts | 346° |
| 2026-04-26 10:06 | 42.90195 | -8.41705 | 1205 ft | 57 kts | 346° |
| 2026-04-26 10:06 | 42.90552 | -8.41824 | 1203 ft | 49 kts | 346° |
| 2026-04-26 10:06 | 42.90853 | -8.41927 | 1198 ft | 39 kts | 346° |
| 2026-04-26 10:06 | 42.91054 | -8.41994 | 1193 ft | 18 kts | 346° |
| 2026-04-26 10:07 | 42.91126 | -8.42022 | 1193 ft | 8 kts | 333° |
| 2026-04-26 10:07 | 42.91149 | -8.42086 | 1193 ft | 7 kts | 270° |
| 2026-04-26 10:07 | 42.91143 | -8.42140 | 1194 ft | 6 kts | 262° |
| 2026-04-26 10:07 | 42.91128 | -8.42212 | 1195 ft | 8 kts | 234° |
| 2026-04-26 10:08 | 42.91085 | -8.42232 | 1195 ft | 6 kts | 176° |
| 2026-04-26 10:08 | 42.91054 | -8.42223 | 1195 ft | 4 kts | 166° |
| 2026-04-26 10:08 | 42.90989 | -8.42200 | 1196 ft | 15 kts | 166° |
| 2026-04-26 10:08 | 42.90872 | -8.42161 | 1197 ft | 18 kts | 166° |
| 2026-04-26 10:09 | 42.90758 | -8.42123 | 1198 ft | 16 kts | 166° |
| 2026-04-26 10:09 | 42.90656 | -8.42089 | 1200 ft | 14 kts | 166° |
| 2026-04-26 10:09 | 42.90533 | -8.42047 | 1201 ft | 22 kts | 166° |
| 2026-04-26 10:09 | 42.90377 | -8.41995 | 1203 ft | 24 kts | 166° |
| 2026-04-26 10:10 | 42.90216 | -8.41941 | 1204 ft | 24 kts | 166° |
| 2026-04-26 10:10 | 42.90052 | -8.41885 | 1206 ft | 25 kts | 166° |
| 2026-04-26 10:10 | 42.89883 | -8.41828 | 1207 ft | 25 kts | 166° |
| 2026-04-26 10:10 | 42.89715 | -8.41773 | 1209 ft | 23 kts | 167° |
| 2026-04-26 10:11 | 42.89612 | -8.41739 | 1210 ft | 12 kts | 166° |
| 2026-04-26 10:11 | 42.89541 | -8.41715 | 1211 ft | 9 kts | 166° |
| 2026-04-26 10:11 | 42.89487 | -8.41705 | 1212 ft | 6 kts | 195° |
| 2026-04-26 10:11 | 42.89459 | -8.41750 | 1212 ft | 7 kts | 240° |
| 2026-04-26 10:12 | 42.89415 | -8.41787 | 1212 ft | 7 kts | 205° |
| 2026-04-26 10:12 | 42.89384 | -8.41825 | 1212 ft | 5 kts | 228° |
| 2026-04-26 10:12 | 42.89364 | -8.41856 | 1213 ft | 3 kts | 229° |
| 2026-04-26 10:12 | 42.89354 | -8.41872 | 1213 ft | 0 kts | 227° |